Cedaredge, CO

05:39 PM MST am 17. Dezember 2014 (GMT -0700)
Montrose Regional | Change Station
CLOSE
Current Station
Flughafen
Location: Montrose,
Höhe: 5758 ft
Wetterstationen in der Umgebung
aktive Warnung: Winter Weather Advisory aktiver Hinweis: Public Information Statement

Höhe 5758 ft 38.51 °N, 107.90 °W | Updated 46 minutes ago

Bedeckt
Bedeckt
38 °F
gefühlte 32 °F
N
8
Wind Wechselnd Wind aus Nordwest

Heute
Max. -- | schwach -- °F
--% Regenrisiko
Gestern
Max. -- | schwach -- °F
Precip. -- inch
7:24 AM 4:51 PM
Letztes Viertel, 18% visible
Druck 29.95 inch
Sichtweite 10.0 Meilen
Wolken Wolkig 4700 ft
Wolkig 9000 ft
Windchill 32 °F
Taupunkt 31 °F
Feuchtigkeit 76%
Regen 0.00 inch
Schneehöhe Nicht verfügbar..
UV 0 von 12
Pollen .10 von 12
Luftqualität Nicht verfügbar..
Flu Activity Nicht verfügbar..
METAR KMTJ 172353Z AUTO 32007KT 10SM BKN047 BKN090 03/M01 A2997 RMK AO2 SLP140 T00331006 10056 20028 53010

More Conditions Fewer Conditions

Druck 29.95 inch
Sichtweite 10.0 Meilen
Wolken Wolkig 4700 ft
Wolkig 9000 ft
Windchill 32 °F
Taupunkt 31 °F
Feuchtigkeit 76%
Regen 0.00 inch
Schneehöhe Nicht verfügbar..
UV 0 von 12
Pollen .10 von 12
Luftqualität Nicht verfügbar..
Flu Activity Nicht verfügbar..
METAR KMTJ 172353Z AUTO 32007KT 10SM BKN047 BKN090 03/M01 A2997 RMK AO2 SLP140 T00331006 10056 20028 53010

More Conditions Fewer Conditions

10-Day Weather Forecast

Almanac

Astronomie

Dec. 17, 2014 Aufgang Untergang
Genaue Zeit
Bürgerliche Dämmerung
Nautische Dämmerung
Astronomische Dämmerung
Mond
Länge des sichtbaren Lichts
Tageslänge
Tomorrow will be .
, % of the Moon is Illuminated

Heutige Rekorde

State Highs State Lows

Community

WunderPhotos

Upload Photos

1,778,837 Fotos hochgeladen!

WunderBlogs® & News

Nearby

Luftqualität

  Luftqualität LQ Index Schadstoff
Not available.

Schneehöhe

Station Depth Höhe

Erdbebenaktivität

Stadt Distance Mag. Time & Date
Minimum magnitude displayed is 2.5.

küstennahe Wassertemperaturen

Ort Temperatur

Wetterstationen in der Umgebung